sensor_id;sensor_type;location;lat;lon;timestamp;temperature;humidity
19385;DHT22;9828;54.122;17.974;2022-11-14T00:02:46;9.90;99.90
19385;DHT22;9828;54.122;17.974;2022-11-14T00:08:26;9.90;99.90
19385;DHT22;9828;54.122;17.974;2022-11-14T00:14:09;9.80;99.90
19385;DHT22;9828;54.122;17.974;2022-11-14T00:19:49;9.70;99.90
19385;DHT22;9828;54.122;17.974;2022-11-14T00:25:29;9.70;99.90
19385;DHT22;9828;54.122;17.974;2022-11-14T00:31:10;9.70;99.90
19385;DHT22;9828;54.122;17.974;2022-11-14T00:36:50;9.70;99.90
19385;DHT22;9828;54.122;17.974;2022-11-14T00:42:30;9.70;99.90
19385;DHT22;9828;54.122;17.974;2022-11-14T00:48:10;9.70;99.90
19385;DHT22;9828;54.122;17.974;2022-11-14T00:53:50;9.60;99.90
19385;DHT22;9828;54.122;17.974;2022-11-14T00:59:30;9.70;99.90
19385;DHT22;9828;54.122;17.974;2022-11-14T01:05:10;9.70;99.90
19385;DHT22;9828;54.122;17.974;2022-11-14T01:10:50;9.70;99.90
19385;DHT22;9828;54.122;17.974;2022-11-14T01:16:30;9.70;99.90
19385;DHT22;9828;54.122;17.974;2022-11-14T01:22:10;9.70;99.90
19385;DHT22;9828;54.122;17.974;2022-11-14T01:27:50;9.70;99.90
19385;DHT22;9828;54.122;17.974;2022-11-14T01:33:30;9.60;99.90
19385;DHT22;9828;54.122;17.974;2022-11-14T01:39:10;9.60;99.90
19385;DHT22;9828;54.122;17.974;2022-11-14T01:44:51;9.60;99.90
19385;DHT22;9828;54.122;17.974;2022-11-14T01:50:31;9.50;99.90
19385;DHT22;9828;54.122;17.974;2022-11-14T01:56:15;9.50;99.90
19385;DHT22;9828;54.122;17.974;2022-11-14T02:01:58;9.50;99.90
19385;DHT22;9828;54.122;17.974;2022-11-14T02:07:40;9.40;99.90
19385;DHT22;9828;54.122;17.974;2022-11-14T02:13:21;9.40;99.90
19385;DHT22;9828;54.122;17.974;2022-11-14T02:19:00;9.40;99.90
19385;DHT22;9828;54.122;17.974;2022-11-14T02:24:41;9.40;99.90
19385;DHT22;9828;54.122;17.974;2022-11-14T02:30:22;9.40;99.90
19385;DHT22;9828;54.122;17.974;2022-11-14T02:36:02;9.40;99.90
19385;DHT22;9828;54.122;17.974;2022-11-14T02:41:42;9.30;99.90
19385;DHT22;9828;54.122;17.974;2022-11-14T02:47:22;9.30;1.00
19385;DHT22;9828;54.122;17.974;2022-11-14T02:53:03;9.30;1.00
19385;DHT22;9828;54.122;17.974;2022-11-14T02:58:44;9.30;1.00
19385;DHT22;9828;54.122;17.974;2022-11-14T03:04:24;9.30;1.00
19385;DHT22;9828;54.122;17.974;2022-11-14T03:10:04;9.20;1.00
19385;DHT22;9828;54.122;17.974;2022-11-14T03:15:45;9.20;1.00
19385;DHT22;9828;54.122;17.974;2022-11-14T03:21:24;9.20;1.00
19385;DHT22;9828;54.122;17.974;2022-11-14T03:27:05;9.20;1.00
19385;DHT22;9828;54.122;17.974;2022-11-14T03:32:45;9.20;1.00
19385;DHT22;9828;54.122;17.974;2022-11-14T03:38:25;9.20;1.00
19385;DHT22;9828;54.122;17.974;2022-11-14T03:44:05;9.10;1.00
19385;DHT22;9828;54.122;17.974;2022-11-14T03:49:45;9.20;1.00
19385;DHT22;9828;54.122;17.974;2022-11-14T03:55:26;9.20;1.00
19385;DHT22;9828;54.122;17.974;2022-11-14T04:01:06;9.20;1.00
19385;DHT22;9828;54.122;17.974;2022-11-14T04:06:46;9.30;1.00
19385;DHT22;9828;54.122;17.974;2022-11-14T04:12:26;9.20;8.00
19385;DHT22;9828;54.122;17.974;2022-11-14T04:18:06;9.20;29.00
19385;DHT22;9828;54.122;17.974;2022-11-14T04:23:46;9.20;45.10
19385;DHT22;9828;54.122;17.974;2022-11-14T04:29:26;9.10;90.90
19385;DHT22;9828;54.122;17.974;2022-11-14T04:35:06;9.00;97.20
19385;DHT22;9828;54.122;17.974;2022-11-14T04:40:50;9.00;97.10
19385;DHT22;9828;54.122;17.974;2022-11-14T04:46:30;9.00;99.90
19385;DHT22;9828;54.122;17.974;2022-11-14T04:52:10;9.00;99.90
19385;DHT22;9828;54.122;17.974;2022-11-14T04:57:55;9.00;99.90
19385;DHT22;9828;54.122;17.974;2022-11-14T05:03:36;9.00;99.90
19385;DHT22;9828;54.122;17.974;2022-11-14T05:09:16;8.90;99.90
19385;DHT22;9828;54.122;17.974;2022-11-14T05:14:55;8.90;99.90
19385;DHT22;9828;54.122;17.974;2022-11-14T05:20:35;8.80;99.40
19385;DHT22;9828;54.122;17.974;2022-11-14T05:26:16;8.80;99.10
19385;DHT22;9828;54.122;17.974;2022-11-14T05:31:57;8.80;99.90
19385;DHT22;9828;54.122;17.974;2022-11-14T05:37:37;8.70;99.90
19385;DHT22;9828;54.122;17.974;2022-11-14T05:43:17;8.70;99.90
19385;DHT22;9828;54.122;17.974;2022-11-14T05:48:57;8.70;99.90
19385;DHT22;9828;54.122;17.974;2022-11-14T05:54:36;8.70;99.90
19385;DHT22;9828;54.122;17.974;2022-11-14T06:00:17;8.70;99.90
19385;DHT22;9828;54.122;17.974;2022-11-14T06:05:59;8.50;99.90
19385;DHT22;9828;54.122;17.974;2022-11-14T06:11:41;8.40;99.90
19385;DHT22;9828;54.122;17.974;2022-11-14T06:17:21;8.40;99.90
19385;DHT22;9828;54.122;17.974;2022-11-14T06:23:00;8.40;99.90
19385;DHT22;9828;54.122;17.974;2022-11-14T06:28:40;8.50;99.90
19385;DHT22;9828;54.122;17.974;2022-11-14T06:34:20;8.50;99.90
19385;DHT22;9828;54.122;17.974;2022-11-14T06:40:00;8.50;99.90
19385;DHT22;9828;54.122;17.974;2022-11-14T06:45:41;8.50;99.90
19385;DHT22;9828;54.122;17.974;2022-11-14T06:51:21;8.50;99.90
19385;DHT22;9828;54.122;17.974;2022-11-14T06:57:01;8.50;99.90
19385;DHT22;9828;54.122;17.974;2022-11-14T07:02:44;8.60;99.90
19385;DHT22;9828;54.122;17.974;2022-11-14T07:08:24;8.60;98.50
19385;DHT22;9828;54.122;17.974;2022-11-14T07:14:04;8.50;30.80
19385;DHT22;9828;54.122;17.974;2022-11-14T07:19:44;8.50;41.40
19385;DHT22;9828;54.122;17.974;2022-11-14T07:25:25;8.40;32.30
19385;DHT22;9828;54.122;17.974;2022-11-14T07:31:06;8.50;26.80
19385;DHT22;9828;54.122;17.974;2022-11-14T07:36:46;8.50;1.00
19385;DHT22;9828;54.122;17.974;2022-11-14T07:42:29;8.50;1.00
19385;DHT22;9828;54.122;17.974;2022-11-14T07:48:09;8.50;1.00
19385;DHT22;9828;54.122;17.974;2022-11-14T07:53:51;8.60;1.00
19385;DHT22;9828;54.122;17.974;2022-11-14T07:59:32;8.60;1.00
19385;DHT22;9828;54.122;17.974;2022-11-14T08:05:12;8.50;1.00
19385;DHT22;9828;54.122;17.974;2022-11-14T08:10:55;8.60;1.00
19385;DHT22;9828;54.122;17.974;2022-11-14T08:16:36;8.50;1.00
19385;DHT22;9828;54.122;17.974;2022-11-14T08:22:17;8.60;1.00
19385;DHT22;9828;54.122;17.974;2022-11-14T08:27:57;8.70;1.00
19385;DHT22;9828;54.122;17.974;2022-11-14T08:33:37;8.80;1.00
19385;DHT22;9828;54.122;17.974;2022-11-14T08:39:17;8.70;1.00
19385;DHT22;9828;54.122;17.974;2022-11-14T08:44:56;8.70;1.00
19385;DHT22;9828;54.122;17.974;2022-11-14T08:50:36;8.70;1.00
19385;DHT22;9828;54.122;17.974;2022-11-14T08:56:17;8.60;1.00
19385;DHT22;9828;54.122;17.974;2022-11-14T09:01:57;8.80;1.00
19385;DHT22;9828;54.122;17.974;2022-11-14T09:07:37;8.70;1.00
19385;DHT22;9828;54.122;17.974;2022-11-14T09:13:17;8.70;1.00
19385;DHT22;9828;54.122;17.974;2022-11-14T09:18:57;8.80;1.00
19385;DHT22;9828;54.122;17.974;2022-11-14T09:24:37;8.60;1.00
19385;DHT22;9828;54.122;17.974;2022-11-14T09:30:17;8.60;1.00
19385;DHT22;9828;54.122;17.974;2022-11-14T09:35:58;8.70;1.00
19385;DHT22;9828;54.122;17.974;2022-11-14T09:47:30;8.70;1.00
19385;DHT22;9828;54.122;17.974;2022-11-14T09:53:32;8.70;1.00
19385;DHT22;9828;54.122;17.974;2022-11-14T09:59:15;8.80;1.00
19385;DHT22;9828;54.122;17.974;2022-11-14T10:10:57;8.70;1.00
19385;DHT22;9828;54.122;17.974;2022-11-14T10:16:53;8.80;1.00
19385;DHT22;9828;54.122;17.974;2022-11-14T10:34:46;8.60;1.00
19385;DHT22;9828;54.122;17.974;2022-11-14T10:40:42;8.50;1.00
19385;DHT22;9828;54.122;17.974;2022-11-14T10:46:31;8.50;1.00
19385;DHT22;9828;54.122;17.974;2022-11-14T10:52:19;8.50;1.00
19385;DHT22;9828;54.122;17.974;2022-11-14T10:58:00;8.40;1.00
19385;DHT22;9828;54.122;17.974;2022-11-14T11:03:41;8.60;1.00
19385;DHT22;9828;54.122;17.974;2022-11-14T11:09:26;8.60;1.00
19385;DHT22;9828;54.122;17.974;2022-11-14T11:15:29;8.70;1.00
19385;DHT22;9828;54.122;17.974;2022-11-14T11:21:12;8.70;1.00
19385;DHT22;9828;54.122;17.974;2022-11-14T11:39:25;8.60;1.00
19385;DHT22;9828;54.122;17.974;2022-11-14T11:45:14;8.50;1.00
19385;DHT22;9828;54.122;17.974;2022-11-14T11:50:57;8.30;1.00
19385;DHT22;9828;54.122;17.974;2022-11-14T11:56:37;8.30;1.00
19385;DHT22;9828;54.122;17.974;2022-11-14T12:02:21;8.30;1.00
19385;DHT22;9828;54.122;17.974;2022-11-14T12:08:04;8.30;1.00
19385;DHT22;9828;54.122;17.974;2022-11-14T12:19:49;7.90;1.00
19385;DHT22;9828;54.122;17.974;2022-11-14T12:36:59;7.60;1.00
19385;DHT22;9828;54.122;17.974;2022-11-14T12:42:46;7.50;26.40
19385;DHT22;9828;54.122;17.974;2022-11-14T12:48:30;7.60;24.00
19385;DHT22;9828;54.122;17.974;2022-11-14T12:54:45;7.50;30.10
19385;DHT22;9828;54.122;17.974;2022-11-14T13:00:27;7.80;2.90
19385;DHT22;9828;54.122;17.974;2022-11-14T13:06:21;7.80;1.00
19385;DHT22;9828;54.122;17.974;2022-11-14T13:12:40;7.80;1.00
19385;DHT22;9828;54.122;17.974;2022-11-14T13:19:17;7.90;1.00
19385;DHT22;9828;54.122;17.974;2022-11-14T13:25:20;7.80;1.00
19385;DHT22;9828;54.122;17.974;2022-11-14T13:31:52;7.70;1.00
19385;DHT22;9828;54.122;17.974;2022-11-14T13:37:15;7.50;13.30
19385;DHT22;9828;54.122;17.974;2022-11-14T13:54:48;7.80;1.00
19385;DHT22;9828;54.122;17.974;2022-11-14T14:06:54;7.60;1.00
19385;DHT22;9828;54.122;17.974;2022-11-14T14:31:09;7.50;1.30
19385;DHT22;9828;54.122;17.974;2022-11-14T14:36:52;7.50;1.00
19385;DHT22;9828;54.122;17.974;2022-11-14T14:42:39;7.40;1.00
19385;DHT22;9828;54.122;17.974;2022-11-14T14:48:26;7.20;13.60
19385;DHT22;9828;54.122;17.974;2022-11-14T14:54:18;7.30;2.50
19385;DHT22;9828;54.122;17.974;2022-11-14T15:00:02;7.30;1.00
19385;DHT22;9828;54.122;17.974;2022-11-14T15:05:44;7.40;1.00
19385;DHT22;9828;54.122;17.974;2022-11-14T15:11:25;7.30;1.00
19385;DHT22;9828;54.122;17.974;2022-11-14T15:17:11;7.30;1.00
19385;DHT22;9828;54.122;17.974;2022-11-14T15:28:48;7.30;1.90
19385;DHT22;9828;54.122;17.974;2022-11-14T15:34:33;7.20;40.90
19385;DHT22;9828;54.122;17.974;2022-11-14T15:40:18;7.30;20.00
19385;DHT22;9828;54.122;17.974;2022-11-14T15:45:59;7.30;1.00
19385;DHT22;9828;54.122;17.974;2022-11-14T15:51:58;7.30;5.50
19385;DHT22;9828;54.122;17.974;2022-11-14T15:57:39;7.30;1.70
19385;DHT22;9828;54.122;17.974;2022-11-14T16:03:20;7.20;9.60
19385;DHT22;9828;54.122;17.974;2022-11-14T16:09:01;7.30;20.30
19385;DHT22;9828;54.122;17.974;2022-11-14T16:14:41;7.30;22.60
19385;DHT22;9828;54.122;17.974;2022-11-14T16:20:23;7.20;27.40
19385;DHT22;9828;54.122;17.974;2022-11-14T16:26:03;7.20;26.60
19385;DHT22;9828;54.122;17.974;2022-11-14T16:31:43;7.20;20.80
19385;DHT22;9828;54.122;17.974;2022-11-14T16:37:23;7.20;25.30
19385;DHT22;9828;54.122;17.974;2022-11-14T16:43:05;7.30;27.70
19385;DHT22;9828;54.122;17.974;2022-11-14T16:48:44;7.40;1.00
19385;DHT22;9828;54.122;17.974;2022-11-14T16:54:25;7.30;1.00
19385;DHT22;9828;54.122;17.974;2022-11-14T17:00:07;7.20;1.00
19385;DHT22;9828;54.122;17.974;2022-11-14T17:05:49;7.30;6.60
19385;DHT22;9828;54.122;17.974;2022-11-14T17:11:30;7.40;1.00
19385;DHT22;9828;54.122;17.974;2022-11-14T17:17:09;7.40;1.00
19385;DHT22;9828;54.122;17.974;2022-11-14T17:22:49;7.40;1.00
19385;DHT22;9828;54.122;17.974;2022-11-14T17:28:29;7.30;1.00
19385;DHT22;9828;54.122;17.974;2022-11-14T17:34:09;7.20;1.00
19385;DHT22;9828;54.122;17.974;2022-11-14T17:39:49;7.30;1.00
19385;DHT22;9828;54.122;17.974;2022-11-14T17:45:29;7.30;1.00
19385;DHT22;9828;54.122;17.974;2022-11-14T17:51:11;7.40;1.00
19385;DHT22;9828;54.122;17.974;2022-11-14T17:56:52;7.20;1.00
19385;DHT22;9828;54.122;17.974;2022-11-14T18:02:33;7.20;1.00
19385;DHT22;9828;54.122;17.974;2022-11-14T18:08:13;7.30;1.00
19385;DHT22;9828;54.122;17.974;2022-11-14T18:13:53;7.40;1.00
19385;DHT22;9828;54.122;17.974;2022-11-14T18:19:34;7.30;1.00
19385;DHT22;9828;54.122;17.974;2022-11-14T18:25:15;7.30;1.00
19385;DHT22;9828;54.122;17.974;2022-11-14T18:30:55;7.30;1.00
19385;DHT22;9828;54.122;17.974;2022-11-14T18:36:35;7.30;1.00
19385;DHT22;9828;54.122;17.974;2022-11-14T18:42:15;7.30;1.00
19385;DHT22;9828;54.122;17.974;2022-11-14T18:47:55;7.20;1.00
19385;DHT22;9828;54.122;17.974;2022-11-14T18:53:36;7.30;1.00
19385;DHT22;9828;54.122;17.974;2022-11-14T18:59:16;7.20;1.00
19385;DHT22;9828;54.122;17.974;2022-11-14T19:04:56;7.30;1.00
19385;DHT22;9828;54.122;17.974;2022-11-14T19:10:36;7.30;1.00
19385;DHT22;9828;54.122;17.974;2022-11-14T19:16:15;7.20;1.00
19385;DHT22;9828;54.122;17.974;2022-11-14T19:21:55;7.20;1.00
19385;DHT22;9828;54.122;17.974;2022-11-14T19:27:35;7.10;1.00
19385;DHT22;9828;54.122;17.974;2022-11-14T19:33:15;7.00;5.60
19385;DHT22;9828;54.122;17.974;2022-11-14T19:38:56;7.00;1.00
19385;DHT22;9828;54.122;17.974;2022-11-14T19:44:36;6.90;30.00
19385;DHT22;9828;54.122;17.974;2022-11-14T19:50:16;6.90;53.00
19385;DHT22;9828;54.122;17.974;2022-11-14T19:56:07;7.00;28.50
19385;DHT22;9828;54.122;17.974;2022-11-14T20:01:48;7.10;11.80
19385;DHT22;9828;54.122;17.974;2022-11-14T20:07:33;7.10;21.90
19385;DHT22;9828;54.122;17.974;2022-11-14T20:13:16;7.00;16.80
19385;DHT22;9828;54.122;17.974;2022-11-14T20:18:58;7.10;27.30
19385;DHT22;9828;54.122;17.974;2022-11-14T20:24:39;7.10;16.00
19385;DHT22;9828;54.122;17.974;2022-11-14T20:30:18;7.00;40.90
19385;DHT22;9828;54.122;17.974;2022-11-14T20:36:06;6.90;75.00
19385;DHT22;9828;54.122;17.974;2022-11-14T20:41:47;7.10;28.50
19385;DHT22;9828;54.122;17.974;2022-11-14T20:47:27;7.10;25.00
19385;DHT22;9828;54.122;17.974;2022-11-14T20:53:07;7.00;14.60
19385;DHT22;9828;54.122;17.974;2022-11-14T20:58:48;6.90;62.60
19385;DHT22;9828;54.122;17.974;2022-11-14T21:04:30;6.90;59.20
19385;DHT22;9828;54.122;17.974;2022-11-14T21:10:09;6.90;92.20
19385;DHT22;9828;54.122;17.974;2022-11-14T21:16:09;7.00;37.00
19385;DHT22;9828;54.122;17.974;2022-11-14T21:21:49;7.10;76.00
19385;DHT22;9828;54.122;17.974;2022-11-14T21:27:30;7.10;80.70
19385;DHT22;9828;54.122;17.974;2022-11-14T21:33:10;7.10;56.10
19385;DHT22;9828;54.122;17.974;2022-11-14T21:38:51;7.10;91.90
19385;DHT22;9828;54.122;17.974;2022-11-14T21:44:31;7.10;74.30
19385;DHT22;9828;54.122;17.974;2022-11-14T21:50:11;7.20;87.60
19385;DHT22;9828;54.122;17.974;2022-11-14T21:55:51;7.20;83.30
19385;DHT22;9828;54.122;17.974;2022-11-14T22:01:31;7.20;81.60
19385;DHT22;9828;54.122;17.974;2022-11-14T22:07:29;7.20;78.70
19385;DHT22;9828;54.122;17.974;2022-11-14T22:13:10;7.20;66.80
19385;DHT22;9828;54.122;17.974;2022-11-14T22:18:51;7.30;69.00
19385;DHT22;9828;54.122;17.974;2022-11-14T22:24:31;7.20;94.20
19385;DHT22;9828;54.122;17.974;2022-11-14T22:30:12;7.20;99.90
19385;DHT22;9828;54.122;17.974;2022-11-14T22:35:51;7.20;78.70
19385;DHT22;9828;54.122;17.974;2022-11-14T22:41:32;7.20;99.90
19385;DHT22;9828;54.122;17.974;2022-11-14T22:47:12;7.20;99.90
19385;DHT22;9828;54.122;17.974;2022-11-14T22:52:53;7.20;92.70
19385;DHT22;9828;54.122;17.974;2022-11-14T22:58:35;7.10;99.90
19385;DHT22;9828;54.122;17.974;2022-11-14T23:04:15;7.10;99.90
19385;DHT22;9828;54.122;17.974;2022-11-14T23:09:55;7.10;99.90
19385;DHT22;9828;54.122;17.974;2022-11-14T23:15:35;7.00;99.90
19385;DHT22;9828;54.122;17.974;2022-11-14T23:21:27;7.00;99.90
19385;DHT22;9828;54.122;17.974;2022-11-14T23:27:07;7.00;99.90
19385;DHT22;9828;54.122;17.974;2022-11-14T23:32:47;7.00;99.90
19385;DHT22;9828;54.122;17.974;2022-11-14T23:38:27;7.00;99.90
19385;DHT22;9828;54.122;17.974;2022-11-14T23:44:10;7.00;99.90
19385;DHT22;9828;54.122;17.974;2022-11-14T23:49:50;6.90;99.90
19385;DHT22;9828;54.122;17.974;2022-11-14T23:55:30;6.90;99.90
